Time;durP1;ratioP1;P1;durP2;ratioP2;P2;SDS_P1;SDS_P2;PMS_P1;PMS_P2;Temp;Humidity;BMP_temperature;BMP_pressure;BME280_temperature;BME280_humidity;BME280_pressure;Samples;Min_cycle;Max_cycle;Signal;HPM_P1;HPM_P2
2023/03/02 00:01:57;;;;;;;23.30;14.93;;;;;;;2.19;66.23;96173.81;5028682;28;20724;-69
2023/03/02 00:04:25;;;;;;;20.90;15.20;;;;;;;2.11;66.52;96169.59;5031026;28;20434;-68
2023/03/02 00:06:55;;;;;;;21.63;14.70;;;;;;;1.99;67.29;96171.53;5030622;28;20414;-69
2023/03/02 00:09:20;;;;;;;26.73;15.50;;;;;;;2.17;66.67;96172.97;5030754;28;20827;-71
2023/03/02 00:11:46;;;;;;;22.13;15.23;;;;;;;2.38;66.01;96167.47;5030563;28;20430;-69
2023/03/02 00:14:11;;;;;;;18.73;13.90;;;;;;;1.98;67.74;96169.78;5030652;28;20186;-69
2023/03/02 00:16:38;;;;;;;23.67;14.83;;;;;;;2.02;67.64;96171.47;5030397;28;20194;-68
2023/03/02 00:19:04;;;;;;;20.23;13.30;;;;;;;1.96;67.48;96169.84;5030663;28;20171;-69
2023/03/02 00:21:30;;;;;;;21.90;15.10;;;;;;;2.03;67.81;96168.88;5030263;28;21004;-68
2023/03/02 00:23:56;;;;;;;25.00;15.60;;;;;;;2.03;67.95;96173.16;5030358;28;20173;-70
2023/03/02 00:26:21;;;;;;;27.57;13.97;;;;;;;2.14;67.81;96173.03;5030350;28;20918;-71
2023/03/02 00:28:47;;;;;;;20.40;13.93;;;;;;;2.32;66.65;96175.34;5030452;28;20189;-69
2023/03/02 00:31:12;;;;;;;20.43;13.20;;;;;;;2.02;67.51;96176.66;5030423;28;20195;-70
2023/03/02 00:33:37;;;;;;;18.17;12.10;;;;;;;2.04;67.67;96180.91;5030322;28;20179;-69
2023/03/02 00:36:03;;;;;;;22.53;13.23;;;;;;;2.22;67.09;96173.75;5030190;28;20263;-70
2023/03/02 00:38:29;;;;;;;22.83;14.03;;;;;;;2.08;67.24;96184.34;5030302;28;20696;-68
2023/03/02 00:40:55;;;;;;;23.37;14.77;;;;;;;1.84;68.32;96173.44;5028824;28;20272;-69
2023/03/02 00:43:26;;;;;;;22.50;14.50;;;;;;;1.89;68.28;96174.22;5030028;28;20724;-69
2023/03/02 00:45:52;;;;;;;21.27;13.10;;;;;;;1.84;67.96;96173.44;5029606;28;20422;-68
2023/03/02 00:48:18;;;;;;;22.17;12.47;;;;;;;1.72;69.05;96168.41;5030508;28;20426;-68
2023/03/02 00:50:43;;;;;;;19.63;13.57;;;;;;;1.80;68.84;96173.50;5030205;28;20429;-69
2023/03/02 00:53:09;;;;;;;26.10;14.33;;;;;;;1.88;68.73;96176.84;5030175;28;21115;-69
2023/03/02 00:55:36;;;;;;;22.37;14.73;;;;;;;1.84;68.26;96178.63;5029837;28;20171;-69
2023/03/02 00:58:02;;;;;;;19.43;13.23;;;;;;;1.77;68.11;96178.69;5029959;28;20180;-69
2023/03/02 01:00:28;;;;;;;24.03;13.73;;;;;;;1.82;68.38;96169.13;5031064;28;20578;-69
2023/03/02 01:02:54;;;;;;;19.23;13.30;;;;;;;1.83;68.46;96171.72;5030025;28;20541;-69
2023/03/02 01:05:20;;;;;;;20.63;12.20;;;;;;;1.79;68.36;96161.44;5030691;28;21054;-68
2023/03/02 01:07:46;;;;;;;20.00;13.20;;;;;;;1.82;68.18;96161.38;5029583;28;20818;-68
2023/03/02 01:10:12;;;;;;;20.43;14.50;;;;;;;1.80;68.98;96150.22;5029658;28;20167;-68
2023/03/02 01:12:37;;;;;;;19.33;12.97;;;;;;;1.94;68.25;96150.88;5029236;28;20230;-69
2023/03/02 01:15:05;;;;;;;20.53;13.40;;;;;;;1.90;68.09;96144.88;5029813;28;20852;-71
2023/03/02 01:17:30;;;;;;;21.87;14.20;;;;;;;1.71;68.90;96127.91;5029256;28;20215;-68
2023/03/02 01:19:56;;;;;;;22.43;14.00;;;;;;;1.75;69.17;96132.16;5029291;28;20532;-68
2023/03/02 01:22:22;;;;;;;19.87;13.60;;;;;;;1.76;68.67;96127.84;5029533;28;20204;-70
2023/03/02 01:24:48;;;;;;;21.27;13.83;;;;;;;1.63;69.47;96122.84;5029924;28;20281;-70
2023/03/02 01:27:14;;;;;;;21.07;14.07;;;;;;;1.56;69.90;96123.81;5029585;28;20418;-69
2023/03/02 01:29:40;;;;;;;21.93;14.40;;;;;;;1.61;69.93;96115.97;5029783;28;20469;-71
2023/03/02 01:32:07;;;;;;;26.97;14.20;;;;;;;1.57;69.55;96128.09;5029246;28;20434;-71
2023/03/02 01:34:33;;;;;;;21.20;13.20;;;;;;;1.46;70.24;96122.19;5029342;28;20724;-70
2023/03/02 01:36:58;;;;;;;21.70;13.93;;;;;;;1.45;70.28;96121.34;5029353;28;20421;-70
2023/03/02 01:39:23;;;;;;;22.13;13.90;;;;;;;1.28;70.04;96125.88;5029411;28;20187;-68
2023/03/02 01:41:51;;;;;;;19.30;12.53;;;;;;;1.38;70.63;96121.44;5029202;28;20199;-69
2023/03/02 01:44:35;;;;;;;21.27;14.37;;;;;;;1.39;70.76;96120.56;5028751;28;20179;-69
2023/03/02 01:47:15;;;;;;;25.73;15.10;;;;;;;1.38;70.77;96117.13;5028277;28;20973;-68
2023/03/02 01:49:46;;;;;;;20.60;12.93;;;;;;;1.37;70.37;96120.59;5029218;28;20461;-68
2023/03/02 01:52:12;;;;;;;23.67;14.80;;;;;;;1.42;70.65;96116.22;5029300;28;21005;-68
2023/03/02 01:54:40;;;;;;;21.23;13.90;;;;;;;1.50;70.49;96116.13;5029032;28;20415;-71
2023/03/02 01:57:07;;;;;;;16.80;12.20;;;;;;;1.56;69.56;96107.41;5028714;28;20180;-71
2023/03/02 01:59:35;;;;;;;25.37;15.10;;;;;;;1.45;70.49;96103.25;5028610;28;20422;-69
2023/03/02 02:02:04;;;;;;;21.60;13.80;;;;;;;1.59;69.75;96100.47;5028552;28;20485;-69
2023/03/02 02:04:31;;;;;;;24.80;14.03;;;;;;;1.36;70.46;96097.34;5028479;28;20414;-69
2023/03/02 02:07:03;;;;;;;26.63;15.40;;;;;;;1.49;70.45;96104.06;5028010;28;20414;-69
2023/03/02 02:09:33;;;;;;;26.80;14.20;;;;;;;1.38;70.83;96103.34;5028563;28;20497;-69
2023/03/02 02:11:59;;;;;;;20.80;13.63;;;;;;;1.50;70.60;96105.78;5028441;28;20434;-69
2023/03/02 02:14:25;;;;;;;26.83;15.30;;;;;;;1.87;68.74;96090.59;5028371;28;20417;-68
2023/03/02 02:16:50;;;;;;;21.77;13.73;;;;;;;2.16;67.61;96093.63;5027849;28;20187;-69
2023/03/02 02:19:30;;;;;;;22.43;14.10;;;;;;;2.29;66.99;96095.09;5028228;28;20533;-70
2023/03/02 02:21:55;;;;;;;24.20;15.60;;;;;;;2.15;67.33;96094.47;5028159;28;20203;-69
2023/03/02 02:24:28;;;;;;;26.07;15.30;;;;;;;2.11;66.93;96083.34;5027386;28;20451;-70
2023/03/02 02:26:55;;;;;;;23.10;14.23;;;;;;;1.89;67.44;96075.91;5027786;28;20181;-70
2023/03/02 02:29:26;;;;;;;20.20;13.90;;;;;;;2.24;66.60;96084.81;5028064;28;20410;-70
2023/03/02 02:31:59;;;;;;;25.03;15.20;;;;;;;2.17;66.57;96078.03;5027864;28;20442;-69
2023/03/02 02:34:33;;;;;;;22.27;14.43;;;;;;;2.14;67.02;96082.44;5028065;28;20417;-69
2023/03/02 02:37:10;;;;;;;17.80;13.10;;;;;;;1.86;67.85;96082.84;5027628;28;21247;-70
2023/03/02 02:39:39;;;;;;;20.30;13.60;;;;;;;1.84;68.30;96085.47;5027806;28;20418;-68
2023/03/02 02:42:12;;;;;;;23.60;14.87;;;;;;;1.86;68.16;96088.88;5027681;28;20431;-69
2023/03/02 02:44:38;;;;;;;21.40;13.70;;;;;;;1.79;68.49;96084.66;5027843;28;20429;-69
2023/03/02 02:47:16;;;;;;;26.90;13.73;;;;;;;1.67;68.75;96084.84;5027231;28;20537;-70
2023/03/02 02:49:41;;;;;;;24.93;16.03;;;;;;;1.47;69.81;96080.81;5027610;28;20285;-69
2023/03/02 02:52:11;;;;;;;22.80;13.07;;;;;;;1.49;69.28;96083.38;5027584;28;20437;-68
2023/03/02 02:54:37;;;;;;;24.47;14.33;;;;;;;1.54;69.15;96076.41;5027549;28;20191;-69
2023/03/02 02:57:04;;;;;;;21.07;13.60;;;;;;;1.40;69.84;96078.34;5027180;28;20991;-68
2023/03/02 02:59:38;;;;;;;19.73;14.00;;;;;;;1.31;69.98;96076.72;5027432;28;20417;-70
2023/03/02 03:02:04;;;;;;;21.47;13.37;;;;;;;1.41;69.54;96065.38;5027270;28;20512;-70
2023/03/02 03:04:31;;;;;;;24.20;13.60;;;;;;;1.52;69.17;96074.72;5027290;28;20888;-68
2023/03/02 03:07:02;;;;;;;21.43;13.53;;;;;;;1.54;69.34;96067.81;5027037;28;20168;-69
2023/03/02 03:09:29;;;;;;;18.80;13.03;;;;;;;1.47;70.02;96064.44;5027155;28;20414;-69
2023/03/02 03:12:13;;;;;;;17.90;13.10;;;;;;;1.49;68.80;96078.22;5027255;28;20472;-69
2023/03/02 03:14:40;;;;;;;22.97;14.60;;;;;;;1.59;68.86;96066.84;5027256;28;20415;-68
2023/03/02 03:17:10;;;;;;;21.50;12.67;;;;;;;1.55;68.80;96072.94;5027004;28;20418;-69
2023/03/02 03:19:38;;;;;;;23.07;13.87;;;;;;;1.67;68.95;96066.75;5027026;28;20413;-69
2023/03/02 03:22:03;;;;;;;23.93;15.03;;;;;;;1.70;68.46;96066.69;5026965;28;20429;-70
2023/03/02 03:24:31;;;;;;;19.73;14.33;;;;;;;1.74;68.17;96068.34;5027081;28;20418;-69
2023/03/02 03:26:58;;;;;;;30.20;15.00;;;;;;;1.74;68.20;96070.94;5026757;28;20756;-69
2023/03/02 03:29:25;;;;;;;23.07;13.17;;;;;;;1.53;68.93;96069.50;5027102;28;20433;-70
2023/03/02 03:31:51;;;;;;;25.00;14.10;;;;;;;1.62;69.29;96063.38;5026636;28;20441;-69
2023/03/02 03:34:17;;;;;;;22.33;12.53;;;;;;;1.86;68.03;96052.66;5026986;28;20418;-69
2023/03/02 03:36:42;;;;;;;22.77;14.30;;;;;;;1.84;67.61;96061.31;5026445;28;20418;-69
2023/03/02 03:39:09;;;;;;;19.57;12.70;;;;;;;1.73;68.43;96071.00;5026751;28;20179;-69
2023/03/02 03:41:34;;;;;;;23.60;13.93;;;;;;;1.52;69.86;96062.66;5026647;28;20893;-68
2023/03/02 03:44:00;;;;;;;28.63;14.23;;;;;;;1.57;68.95;96067.75;5026730;28;20423;-69
2023/03/02 03:46:26;;;;;;;23.70;14.30;;;;;;;1.74;68.89;96065.78;5026359;28;20672;-68
2023/03/02 03:48:51;;;;;;;20.57;12.53;;;;;;;1.74;68.80;96068.34;5026917;28;20194;-70
2023/03/02 03:51:17;;;;;;;21.07;14.27;;;;;;;1.77;68.89;96070.03;5027072;28;20270;-68
2023/03/02 03:53:42;;;;;;;20.43;13.53;;;;;;;1.78;68.33;96067.44;5026823;28;20205;-68
2023/03/02 03:56:08;;;;;;;22.70;13.30;;;;;;;1.93;68.04;96074.13;5026230;28;20190;-69
2023/03/02 03:58:33;;;;;;;18.33;12.40;;;;;;;1.74;68.10;96070.94;5026702;28;20548;-68
2023/03/02 04:00:59;;;;;;;20.67;13.53;;;;;;;1.75;68.61;96064.91;5026582;28;20199;-69
2023/03/02 04:03:25;;;;;;;19.33;12.80;;;;;;;1.56;69.17;96071.19;5026739;28;20782;-69
2023/03/02 04:05:51;;;;;;;23.67;13.57;;;;;;;1.71;68.56;96077.91;5026356;28;20249;-69
2023/03/02 04:08:17;;;;;;;20.70;12.13;;;;;;;1.84;67.93;96077.72;5026708;28;20422;-70
2023/03/02 04:10:43;;;;;;;25.70;14.60;;;;;;;1.51;69.28;96079.03;5026922;28;20266;-69
2023/03/02 04:13:08;;;;;;;21.80;12.93;;;;;;;1.55;69.56;96074.69;5026451;28;20517;-69
2023/03/02 04:15:34;;;;;;;24.60;13.80;;;;;;;1.37;69.33;96071.47;5026743;28;20814;-69
2023/03/02 04:18:00;;;;;;;22.57;15.43;;;;;;;1.54;69.21;96078.16;5026459;28;20503;-69
2023/03/02 04:20:27;;;;;;;21.50;14.70;;;;;;;1.57;69.57;96078.09;5026432;28;20468;-68
2023/03/02 04:22:54;;;;;;;26.53;13.70;;;;;;;1.93;68.15;96079.28;5026357;28;20430;-70
2023/03/02 04:25:24;;;;;;;24.30;13.83;;;;;;;1.83;68.02;96070.81;5026485;28;20497;-68
2023/03/02 04:27:51;;;;;;;19.00;11.77;;;;;;;1.76;68.37;96078.69;5026196;28;21028;-70
2023/03/02 04:30:19;;;;;;;23.47;13.60;;;;;;;1.63;69.06;96083.16;5026369;28;20449;-68
2023/03/02 04:32:45;;;;;;;24.43;14.17;;;;;;;1.68;68.52;96078.81;5026269;28;20875;-69
2023/03/02 04:35:12;;;;;;;20.90;13.73;;;;;;;1.69;68.32;96081.34;5026544;28;20418;-69
2023/03/02 04:37:39;;;;;;;20.97;13.23;;;;;;;1.74;68.94;96078.72;5026498;28;20167;-69
2023/03/02 04:40:05;;;;;;;24.43;15.03;;;;;;;1.84;68.37;96084.59;5026694;28;20453;-69
2023/03/02 04:42:31;;;;;;;19.83;13.87;;;;;;;1.65;68.56;96078.84;5026925;28;20438;-69
2023/03/02 04:44:56;;;;;;;22.07;13.70;;;;;;;1.62;69.27;96084.91;5026560;28;20445;-69
2023/03/02 04:47:22;;;;;;;18.70;13.50;;;;;;;1.64;68.68;96077.13;5026322;28;20217;-70
2023/03/02 04:49:49;;;;;;;22.47;13.43;;;;;;;1.80;68.04;96073.47;5029895;28;20265;-69
2023/03/02 04:52:15;;;;;;;23.07;13.60;;;;;;;1.80;68.46;96076.03;5029753;28;20206;-69
2023/03/02 04:54:40;;;;;;;24.87;14.70;;;;;;;1.93;67.99;96070.69;5029860;28;20410;-68
2023/03/02 04:57:07;;;;;;;20.77;12.70;;;;;;;1.70;68.12;96074.44;5029561;28;20175;-69
2023/03/02 04:59:33;;;;;;;24.73;14.10;;;;;;;1.85;67.75;96078.56;5029582;28;20186;-68
2023/03/02 05:01:59;;;;;;;19.10;11.70;;;;;;;1.65;68.87;96076.25;5029609;28;20438;-70
2023/03/02 05:04:26;;;;;;;19.60;13.77;;;;;;;1.61;69.09;96078.03;5029710;28;20936;-69
2023/03/02 05:06:52;;;;;;;22.70;13.37;;;;;;;1.52;69.56;96082.50;5029397;28;20425;-70
2023/03/02 05:09:17;;;;;;;26.83;15.47;;;;;;;1.59;68.63;96078.94;5029853;28;20881;-70
2023/03/02 05:11:43;;;;;;;19.27;13.10;;;;;;;1.47;69.21;96075.63;5029315;28;20194;-70
2023/03/02 05:14:11;;;;;;;19.00;13.73;;;;;;;1.52;69.26;96077.31;5029531;28;20628;-69
2023/03/02 05:16:38;;;;;;;24.93;15.23;;;;;;;1.50;69.61;96072.16;5029037;28;20179;-70
2023/03/02 05:19:06;;;;;;;24.80;13.70;;;;;;;1.61;69.35;96084.94;5028029;28;20475;-69
2023/03/02 05:21:32;;;;;;;21.07;13.87;;;;;;;1.72;68.62;96072.69;5027792;28;20888;-68
2023/03/02 05:23:58;;;;;;;20.00;12.43;;;;;;;1.61;68.66;96070.28;5029318;28;20425;-69
2023/03/02 05:26:23;;;;;;;26.00;13.30;;;;;;;1.57;68.88;96075.50;5028783;28;20415;-68
2023/03/02 05:28:49;;;;;;;24.27;13.67;;;;;;;1.40;70.22;96068.84;5029208;28;20179;-69
2023/03/02 05:31:36;;;;;;;17.67;11.90;;;;;;;1.43;69.83;96070.53;5029105;28;20191;-67
2023/03/02 05:34:04;;;;;;;21.20;12.73;;;;;;;1.52;69.04;96062.66;5028811;28;20684;-68
2023/03/02 05:36:30;;;;;;;19.30;12.10;;;;;;;1.73;68.89;96066.66;5028754;28;20426;-68
2023/03/02 05:38:56;;;;;;;20.23;11.70;;;;;;;1.82;68.06;96070.81;5025053;28;20967;-68
2023/03/02 05:41:21;;;;;;;24.07;12.47;;;;;;;1.95;67.68;96069.78;5025693;28;20539;-70
2023/03/02 05:43:47;;;;;;;23.77;13.73;;;;;;;1.83;68.12;96068.22;5027808;28;20207;-69
2023/03/02 05:46:12;;;;;;;21.40;12.87;;;;;;;1.71;68.56;96065.81;5027654;28;20641;-70
2023/03/02 05:48:38;;;;;;;19.17;12.60;;;;;;;1.96;67.47;96078.38;5027407;28;20255;-67
2023/03/02 05:51:04;;;;;;;20.10;12.80;;;;;;;1.83;67.91;96073.41;5026330;28;20702;-69
2023/03/02 05:53:29;;;;;;;20.10;13.53;;;;;;;1.89;68.21;96078.50;5026344;28;20175;-69
2023/03/02 05:55:55;;;;;;;18.17;12.83;;;;;;;1.95;67.58;96074.09;5025990;28;20187;-66
2023/03/02 05:58:20;;;;;;;21.23;13.17;;;;;;;2.08;67.26;96078.22;5024314;28;20712;-69
2023/03/02 06:00:47;;;;;;;21.30;13.10;;;;;;;1.97;67.87;96080.13;5025167;28;20199;-69
2023/03/02 06:03:13;;;;;;;20.43;13.70;;;;;;;1.79;67.75;96095.00;5028709;28;20986;-70
2023/03/02 06:05:38;;;;;;;17.47;12.77;;;;;;;1.75;68.63;96090.78;5025662;28;20429;-67
2023/03/02 06:08:04;;;;;;;17.50;12.43;;;;;;;3.48;75.64;96079.06;5025466;28;20176;-72
2023/03/02 06:10:31;;;;;;;22.60;13.97;;;;;;;2.72;65.44;96094.41;5026143;28;20187;-69
2023/03/02 06:12:56;;;;;;;19.43;12.37;;;;;;;2.31;66.64;96094.19;5022413;28;20445;-69
2023/03/02 06:15:22;;;;;;;22.70;15.80;;;;;;;2.07;67.12;96094.59;5025123;28;20418;-69
2023/03/02 06:17:47;;;;;;;17.80;11.33;;;;;;;2.03;67.30;96103.28;5023915;28;20179;-69
2023/03/02 06:20:14;;;;;;;21.43;14.00;;;;;;;1.83;67.71;96101.84;5028123;28;20207;-69
2023/03/02 06:22:44;;;;;;;20.23;12.70;;;;;;;1.55;68.83;96106.56;5021548;28;20249;-69
2023/03/02 06:25:15;;;;;;;23.40;14.13;;;;;;;1.47;69.33;96101.50;5024561;28;20881;-69
2023/03/02 06:27:41;;;;;;;24.33;14.03;;;;;;;1.57;69.72;96099.63;5028658;28;20442;-69
2023/03/02 06:30:09;;;;;;;21.37;14.30;;;;;;;1.68;69.58;96104.69;5030574;28;20425;-69
2023/03/02 06:32:35;;;;;;;21.87;12.73;;;;;;;1.61;69.69;96108.22;5024023;28;21149;-68
2023/03/02 06:35:02;;;;;;;25.83;13.80;;;;;;;1.65;68.98;96104.69;5028658;28;20500;-69
2023/03/02 06:37:28;;;;;;;21.90;13.77;;;;;;;1.72;68.60;96115.81;5024301;28;20183;-69
2023/03/02 06:39:55;;;;;;;23.10;13.93;;;;;;;1.61;69.45;96109.06;5027751;28;20469;-69
2023/03/02 06:42:21;;;;;;;20.47;14.13;;;;;;;1.57;69.73;96114.31;5024213;28;20886;-69
2023/03/02 06:44:47;;;;;;;23.67;13.90;;;;;;;1.67;69.53;96119.31;5024585;28;20430;-69
2023/03/02 06:47:12;;;;;;;22.67;13.53;;;;;;;1.75;68.60;96115.78;5024851;28;20510;-69
2023/03/02 06:49:38;;;;;;;24.63;14.97;;;;;;;1.71;68.66;96120.16;5023044;28;20187;-69
2023/03/02 06:52:05;;;;;;;22.47;13.77;;;;;;;1.93;68.27;96123.28;5024538;28;20206;-70
2023/03/02 06:54:30;;;;;;;19.93;12.80;;;;;;;2.07;67.54;96123.06;5025488;28;20184;-70
2023/03/02 06:56:56;;;;;;;19.77;12.07;;;;;;;2.07;67.28;96126.50;5024460;28;20444;-69
2023/03/02 06:59:22;;;;;;;18.67;11.87;;;;;;;1.87;67.52;96128.56;5024996;28;20213;-69
2023/03/02 07:01:49;;;;;;;21.83;14.50;;;;;;;1.81;68.54;96124.31;5022732;28;20210;-71
2023/03/02 07:04:15;;;;;;;21.77;15.10;;;;;;;1.95;68.55;96126.69;5023193;28;20925;-69
2023/03/02 07:06:40;;;;;;;22.67;12.70;;;;;;;1.92;67.80;96131.09;5023848;28;20413;-70
2023/03/02 07:09:06;;;;;;;23.57;15.20;;;;;;;1.95;67.38;96134.47;5022983;28;20457;-69
2023/03/02 07:11:31;;;;;;;21.40;13.53;;;;;;;2.01;68.02;96136.09;5023269;28;21097;-71
2023/03/02 07:13:59;;;;;;;19.60;13.30;;;;;;;1.95;67.95;96133.63;5024726;28;20198;-69
2023/03/02 07:16:25;;;;;;;22.23;12.70;;;;;;;1.96;67.74;96131.03;5023986;28;20183;-72
2023/03/02 07:18:50;;;;;;;19.37;13.57;;;;;;;1.97;67.90;96131.88;5024305;28;20421;-70
2023/03/02 07:21:16;;;;;;;18.77;13.07;;;;;;;1.93;68.15;96131.03;5024449;28;20203;-69
2023/03/02 07:23:41;;;;;;;20.60;14.23;;;;;;;1.91;68.29;96127.63;5025414;28;20172;-69
2023/03/02 07:26:07;;;;;;;23.80;13.17;;;;;;;1.88;68.26;96132.84;5028706;28;20174;-70
2023/03/02 07:28:38;;;;;;;20.83;12.93;;;;;;;1.86;68.52;96129.41;5023597;28;20210;-70
2023/03/02 07:31:04;;;;;;;20.40;13.77;;;;;;;2.06;67.79;96139.50;5018679;28;20437;-71
2023/03/02 07:33:30;;;;;;;21.17;13.40;;;;;;;1.84;68.29;96134.63;5023881;28;20855;-71
2023/03/02 07:35:55;;;;;;;21.20;13.63;;;;;;;1.98;68.72;96131.81;5024983;28;20434;-69
2023/03/02 07:38:21;;;;;;;20.00;13.90;;;;;;;1.99;67.82;96132.72;5026854;28;20281;-70
2023/03/02 07:40:46;;;;;;;23.63;13.97;;;;;;;1.96;68.31;96140.50;5027070;28;20207;-72
2023/03/02 07:43:12;;;;;;;21.43;13.80;;;;;;;1.92;67.98;96139.69;5027133;28;20234;-70
2023/03/02 07:45:37;;;;;;;30.13;13.90;;;;;;;2.27;67.57;96146.09;5026992;28;20281;-69
2023/03/02 07:48:03;;;;;;;20.47;13.80;;;;;;;2.38;66.66;96136.41;5026816;28;20175;-69
2023/03/02 07:50:29;;;;;;;22.73;15.33;;;;;;;2.30;66.95;96143.44;5027531;28;20175;-71
2023/03/02 07:52:55;;;;;;;29.70;13.97;;;;;;;1.93;68.27;96150.88;5027454;28;20469;-70
2023/03/02 07:55:20;;;;;;;20.50;14.30;;;;;;;2.04;68.03;96154.19;5026707;28;20484;-69
2023/03/02 07:57:46;;;;;;;22.10;14.00;;;;;;;1.85;69.00;96159.63;5026745;28;20183;-69
2023/03/02 08:00:12;;;;;;;19.80;12.57;;;;;;;1.84;69.05;96159.63;5026739;28;20207;-71
2023/03/02 08:02:39;;;;;;;25.43;14.40;;;;;;;1.78;69.08;96163.16;5027119;28;20613;-69
2023/03/02 08:05:04;;;;;;;28.40;14.13;;;;;;;1.97;69.10;96157.75;5026895;28;20187;-69
2023/03/02 08:07:30;;;;;;;24.33;13.57;;;;;;;2.18;68.52;96157.44;5026843;28;20844;-70
2023/03/02 08:09:56;;;;;;;20.67;13.43;;;;;;;2.27;67.38;96175.41;5026770;28;20178;-70
2023/03/02 08:12:22;;;;;;;23.73;14.43;;;;;;;2.07;68.31;96172.25;5026866;28;20560;-70
2023/03/02 08:14:48;;;;;;;19.73;13.87;;;;;;;1.99;68.93;96171.53;5026812;28;20433;-69
2023/03/02 08:17:13;;;;;;;19.57;12.27;;;;;;;2.13;68.41;96169.59;5026047;28;20186;-69
2023/03/02 08:19:39;;;;;;;24.50;13.50;;;;;;;2.03;68.65;96170.56;5026286;28;20230;-71
2023/03/02 08:22:04;;;;;;;18.97;12.60;;;;;;;1.86;69.61;96169.06;5026350;28;20817;-70
2023/03/02 08:24:30;;;;;;;20.20;12.90;;;;;;;2.02;69.20;96171.47;5030379;28;20191;-70
2023/03/02 08:27:00;;;;;;;21.73;11.57;;;;;;;2.07;69.26;96167.06;5029955;28;20175;-69
2023/03/02 08:29:25;;;;;;;20.90;12.57;;;;;;;1.98;68.97;96159.44;5030204;28;20179;-69
2023/03/02 08:31:51;;;;;;;19.23;13.57;;;;;;;2.22;68.60;96164.28;5012295;28;21022;-69
2023/03/02 08:34:16;;;;;;;24.57;14.80;;;;;;;2.21;68.91;96157.38;5010286;28;20179;-70
2023/03/02 08:36:42;;;;;;;20.70;14.63;;;;;;;2.48;68.02;96152.63;5009843;28;20283;-70
2023/03/02 08:39:08;;;;;;;22.17;14.63;;;;;;;2.63;67.37;96157.59;5008581;28;20180;-70
2023/03/02 08:41:34;;;;;;;21.50;12.80;;;;;;;2.54;67.42;96158.56;5010130;28;20463;-72
2023/03/02 08:43:59;;;;;;;23.20;14.47;;;;;;;2.30;68.46;96157.25;5010122;28;20795;-69
2023/03/02 08:46:24;;;;;;;23.20;13.13;;;;;;;2.50;68.13;96156.06;5010130;28;20287;-69
2023/03/02 08:48:50;;;;;;;23.03;14.03;;;;;;;2.72;67.32;96161.75;5010331;28;20326;-70
2023/03/02 08:51:21;;;;;;;22.30;14.90;;;;;;;2.69;67.60;96160.09;5008834;28;20184;-70
2023/03/02 08:53:49;;;;;;;21.30;14.33;;;;;;;2.86;67.43;96153.72;5009634;28;20176;-69
2023/03/02 08:56:18;;;;;;;17.53;13.70;;;;;;;2.97;66.63;96154.41;5009369;28;20419;-70
2023/03/02 08:58:44;;;;;;;22.30;13.40;;;;;;;3.13;66.25;96157.56;5009713;28;20925;-70
2023/03/02 09:01:15;;;;;;;20.00;12.87;;;;;;;3.20;66.28;96146.19;5009954;28;20459;-71
2023/03/02 09:03:40;;;;;;;24.60;13.83;;;;;;;3.01;65.68;96156.06;5010052;28;20771;-69
2023/03/02 09:06:06;;;;;;;21.23;14.40;;;;;;;3.04;66.38;96152.56;5008849;28;20620;-69
2023/03/02 09:08:31;;;;;;;27.20;18.20;;;;;;;3.13;66.32;96155.81;5007626;28;20179;-70
2023/03/02 09:10:57;;;;;;;24.40;15.10;;;;;;;3.24;65.64;96153.03;5009541;28;20264;-71
2023/03/02 09:13:22;;;;;;;21.43;14.67;;;;;;;3.29;65.87;96145.19;5009769;28;20168;-69
2023/03/02 09:15:48;;;;;;;19.70;14.07;;;;;;;3.45;65.18;96151.78;5009372;28;20557;-70
2023/03/02 09:18:13;;;;;;;19.33;13.10;;;;;;;3.71;64.98;96153.84;5010250;28;20176;-70
2023/03/02 09:20:39;;;;;;;22.73;13.20;;;;;;;3.92;64.56;96154.25;5011420;28;20812;-69
2023/03/02 09:23:04;;;;;;;23.73;15.20;;;;;;;3.73;64.04;96154.66;5009169;28;20184;-69
2023/03/02 09:25:29;;;;;;;20.70;14.57;;;;;;;3.46;65.25;96153.47;5009973;28;20304;-70
2023/03/02 09:27:55;;;;;;;26.37;16.43;;;;;;;3.54;65.35;96151.59;5010022;28;20204;-69
2023/03/02 09:30:21;;;;;;;24.00;15.10;;;;;;;3.56;65.10;96156.72;5015735;28;20164;-69
2023/03/02 09:32:47;;;;;;;25.93;15.73;;;;;;;3.69;64.24;96155.59;5030327;28;20191;-71
2023/03/02 09:35:13;;;;;;;21.80;14.13;;;;;;;3.38;65.78;96150.19;5030744;28;20532;-69
2023/03/02 09:37:39;;;;;;;20.07;15.20;;;;;;;3.52;65.06;96158.53;5029238;28;20410;-70
2023/03/02 09:40:14;;;;;;;24.90;16.93;;;;;;;3.73;64.49;96162.44;5029239;28;20869;-70
2023/03/02 09:42:55;;;;;;;26.93;16.13;;;;;;;3.82;64.34;96154.44;5029052;28;20896;-69
2023/03/02 09:46:02;;;;;;;23.73;15.70;;;;;;;3.41;65.11;96159.66;5029756;28;20892;-68
2023/03/02 09:48:39;;;;;;;24.07;16.93;;;;;;;3.59;65.19;96159.25;5028072;28;20988;-70
2023/03/02 09:51:10;;;;;;;25.70;17.00;;;;;;;3.74;64.27;96158.09;5029009;28;20493;-69
2023/03/02 09:53:50;;;;;;;24.90;15.83;;;;;;;3.43;65.01;96152.69;5028467;28;20405;-69
2023/03/02 09:56:18;;;;;;;19.33;16.13;;;;;;;3.67;65.14;96166.91;5028362;28;20418;-69
2023/03/02 09:59:27;;;;;;;24.07;17.03;;;;;;;3.78;64.50;96159.72;5028560;28;20411;-70
2023/03/02 10:01:55;;;;;;;24.73;17.33;;;;;;;3.75;64.50;96165.00;5025947;28;20528;-71
2023/03/02 10:04:26;;;;;;;22.57;16.67;;;;;;;3.93;63.94;96161.16;5028914;28;20414;-69
2023/03/02 10:07:09;;;;;;;28.50;18.30;;;;;;;3.89;63.46;96162.94;5028301;28;20525;-72
2023/03/02 10:09:34;;;;;;;24.60;17.50;;;;;;;3.93;63.59;96155.97;5030346;28;20959;-71
2023/03/02 10:12:09;;;;;;;32.63;17.70;;;;;;;4.09;63.77;96159.94;5028826;28;20473;-69
2023/03/02 10:14:42;;;;;;;28.20;19.27;;;;;;;4.12;63.41;96154.66;5028442;28;20159;-69
2023/03/02 10:17:31;;;;;;;32.83;21.07;;;;;;;4.12;63.28;96162.47;5027840;28;20767;-70
2023/03/02 10:20:02;;;;;;;24.80;18.77;;;;;;;3.85;64.03;96158.75;5028128;28;21194;-70
2023/03/02 10:22:30;;;;;;;31.03;17.47;;;;;;;3.85;63.78;96155.25;5028252;28;20958;-70
2023/03/02 10:25:16;;;;;;;25.63;17.07;;;;;;;4.09;63.04;96164.28;5028097;28;20422;-70
2023/03/02 10:27:45;;;;;;;28.47;16.80;;;;;;;4.27;63.67;96155.22;5027702;28;20406;-69
2023/03/02 10:30:28;;;;;;;27.90;18.97;;;;;;;4.54;61.98;96164.97;5028192;28;20411;-70
2023/03/02 10:32:57;;;;;;;21.50;16.27;;;;;;;4.37;63.01;96169.69;5026526;28;20525;-69
2023/03/02 10:35:25;;;;;;;28.20;18.97;;;;;;;4.41;62.05;96164.38;5028079;28;20415;-69
2023/03/02 10:37:57;;;;;;;24.60;17.03;;;;;;;4.21;63.11;96174.41;5027728;28;20415;-69
2023/03/02 10:40:44;;;;;;;24.57;16.43;;;;;;;4.16;62.84;96168.44;5027891;28;20442;-69
2023/03/02 10:43:19;;;;;;;21.53;15.70;;;;;;;4.69;62.05;96168.91;5027541;28;20442;-70
2023/03/02 10:45:45;;;;;;;26.90;20.13;;;;;;;5.01;60.25;96172.47;5026928;28;20428;-70
2023/03/02 10:48:12;;;;;;;26.27;15.93;;;;;;;5.28;59.77;96174.34;5027177;28;20900;-70
2023/03/02 10:50:38;;;;;;;25.60;16.90;;;;;;;5.39;59.24;96173.22;5026319;28;20410;-69
2023/03/02 10:53:15;;;;;;;26.17;18.90;;;;;;;5.47;58.82;96171.25;5027243;28;20426;-69
2023/03/02 10:55:47;;;;;;;28.03;23.00;;;;;;;5.19;59.68;96171.97;5027470;28;20417;-69
2023/03/02 10:58:32;;;;;;;36.33;25.67;;;;;;;5.43;59.26;96169.59;5027443;28;20903;-70
2023/03/02 11:01:14;;;;;;;30.80;21.00;;;;;;;5.65;58.58;96170.72;5027328;28;20473;-69
2023/03/02 11:03:39;;;;;;;34.53;23.30;;;;;;;5.55;58.98;96169.28;5027244;28;20743;-70
2023/03/02 11:06:17;;;;;;;30.60;21.67;;;;;;;6.03;57.70;96163.59;5027446;28;20437;-69
2023/03/02 11:08:43;;;;;;;22.37;15.80;;;;;;;6.06;56.96;96166.09;5027639;28;20176;-70
2023/03/02 11:11:22;;;;;;;25.10;16.67;;;;;;;5.84;57.95;96165.00;5027256;28;20906;-69
2023/03/02 11:13:47;;;;;;;24.93;18.17;;;;;;;5.86;57.92;96158.84;5028044;28;20164;-68
2023/03/02 11:16:16;;;;;;;26.40;16.77;;;;;;;5.39;59.34;96176.66;5027961;28;20421;-70
2023/03/02 11:18:47;;;;;;;28.57;19.00;;;;;;;5.70;58.35;96168.00;5029297;28;20538;-68
2023/03/02 11:21:19;;;;;;;32.47;21.37;;;;;;;5.61;59.38;96163.91;5028775;28;20982;-69
2023/03/02 11:24:03;;;;;;;27.80;17.97;;;;;;;6.27;56.99;96166.38;5027904;28;20414;-69
2023/03/02 11:26:37;;;;;;;32.67;20.87;;;;;;;5.84;57.35;96167.63;5029216;28;20493;-70
2023/03/02 11:29:36;;;;;;;29.77;19.97;;;;;;;6.54;56.48;96156.81;5030126;28;20436;-69